createdAt,value
2023-03-28T00:01:18.145Z,97879.03
2023-03-28T00:03:45.246Z,97881.06
2023-03-28T00:06:20.272Z,97884.66
2023-03-28T00:08:49.613Z,97874.53
2023-03-28T00:11:20.250Z,97884.06
2023-03-28T00:13:50.029Z,97879.91
2023-03-28T00:16:18.577Z,97885.06
2023-03-28T00:18:51.762Z,97879.91
2023-03-28T00:21:20.021Z,97885.97
2023-03-28T00:23:48.275Z,97878.50
2023-03-28T00:26:18.027Z,97883.75
2023-03-28T00:28:49.796Z,97888.25
2023-03-28T00:31:17.553Z,97884.75
2023-03-28T00:33:48.215Z,97881.50
2023-03-28T00:36:20.478Z,97885.91
2023-03-28T00:38:49.280Z,97892.91
2023-03-28T00:41:19.048Z,97897.25
2023-03-28T00:43:50.910Z,97898.44
2023-03-28T00:46:23.174Z,97890.69
2023-03-28T00:48:55.235Z,97895.94
2023-03-28T00:51:24.315Z,97892.75
2023-03-28T00:53:52.249Z,97891.28
2023-03-28T00:56:19.527Z,97895.78
2023-03-28T00:58:47.806Z,97886.53
2023-03-28T01:01:16.329Z,97886.63
2023-03-28T01:03:49.247Z,97883.22
2023-03-28T01:06:17.326Z,97895.28
2023-03-28T01:08:45.128Z,97893.72
2023-03-28T01:11:15.459Z,97891.88
2023-03-28T01:13:44.154Z,97894.38
2023-03-28T01:16:14.850Z,97895.38
2023-03-28T01:18:41.918Z,97896.94
2023-03-28T01:21:14.035Z,97892.44
2023-03-28T01:24:10.776Z,97890.03
2023-03-28T01:26:53.721Z,97897.97
2023-03-28T01:29:33.209Z,97901.47
2023-03-28T01:32:01.697Z,97892.03
2023-03-28T01:34:50.930Z,97901.59
2023-03-28T01:37:31.135Z,97897.25
2023-03-28T01:40:33.837Z,97886.19
2023-03-28T01:43:10.590Z,97887.78
2023-03-28T01:45:38.578Z,97895.47
2023-03-28T01:48:30.692Z,97892.28
2023-03-28T01:51:02.252Z,97891.19
2023-03-28T01:53:36.920Z,97893.09
2023-03-28T01:56:38.515Z,97900.84
2023-03-28T01:59:08.574Z,97897.53
2023-03-28T02:01:54.802Z,97894.38
2023-03-28T02:04:22.896Z,97894.44
2023-03-28T02:06:50.556Z,97897.78
2023-03-28T02:09:20.411Z,97894.38
2023-03-28T02:11:53.378Z,97893.63
2023-03-28T02:14:22.578Z,97894.69
2023-03-28T02:16:55.093Z,97892.97
2023-03-28T02:19:22.879Z,97882.84
2023-03-28T02:22:03.537Z,97875.09
2023-03-28T02:24:36.064Z,97878.59
2023-03-28T02:27:05.016Z,97872.63
2023-03-28T02:29:33.461Z,97870.63
2023-03-28T02:32:05.457Z,97874.13
2023-03-28T02:34:35.061Z,97872.69
2023-03-28T02:42:37.462Z,97872.28
2023-03-28T02:45:26.548Z,97868.03
2023-03-28T02:57:22.714Z,97864.19
2023-03-28T03:00:00.875Z,97859.88
2023-03-28T03:02:37.927Z,97864.19
2023-03-28T03:10:38.889Z,97866.59
2023-03-28T03:13:11.893Z,97858.03
2023-03-28T03:18:24.502Z,97866.28
2023-03-28T03:32:37.785Z,97866.84
2023-03-28T03:35:12.269Z,97869.59
2023-03-28T03:37:47.948Z,97873.84
2023-03-28T08:28:47.272Z,98046.88
2023-03-28T08:31:23.735Z,98042.50
2023-03-28T09:11:40.856Z,98053.34
2023-03-28T09:14:15.520Z,98058.97
2023-03-28T09:16:46.635Z,98064.34
2023-03-28T09:22:39.672Z,98067.66
2023-03-28T09:28:05.903Z,98062.00
2023-03-28T10:02:03.084Z,98044.00
2023-03-28T10:27:27.938Z,98030.66
2023-03-28T11:14:09.273Z,97987.34
2023-03-28T12:19:40.052Z,97889.34
2023-03-28T15:30:59.023Z,97630.50
2023-03-28T15:33:26.555Z,97626.28
2023-03-28T15:42:58.002Z,97595.91
2023-03-28T15:45:30.025Z,97595.03
2023-03-28T15:54:30.212Z,97577.75
2023-03-28T16:01:08.716Z,97557.25
2023-03-28T16:07:22.060Z,97563.81
2023-03-28T16:09:52.591Z,97582.09
2023-03-28T16:12:19.706Z,97576.47
2023-03-28T16:14:52.460Z,97583.00
2023-03-28T16:17:26.668Z,97579.69
2023-03-28T16:19:57.018Z,97568.09
2023-03-28T16:32:52.052Z,97573.91
2023-03-28T20:54:36.041Z,97448.38
2023-03-28T20:57:03.644Z,97449.47
2023-03-28T20:59:30.684Z,97445.00
2023-03-28T21:01:57.567Z,97448.81
2023-03-28T21:04:24.703Z,97449.50
2023-03-28T21:06:52.364Z,97443.63
2023-03-28T21:09:19.882Z,97445.97
2023-03-28T21:11:47.554Z,97439.09
2023-03-28T21:14:14.597Z,97448.81
2023-03-28T21:16:46.451Z,97440.56
2023-03-28T21:22:42.852Z,97436.94
2023-03-28T21:33:26.310Z,97420.50
2023-03-28T21:35:55.807Z,97420.75
2023-03-28T21:43:50.265Z,97410.59
2023-03-28T22:07:47.860Z,97380.34
2023-03-28T22:10:19.977Z,97375.59
2023-03-28T23:04:03.165Z,97337.84
2023-03-28T23:14:44.194Z,97318.44
2023-03-28T23:19:52.696Z,97333.53
2023-03-28T23:22:20.002Z,97324.75
2023-03-28T23:30:17.610Z,97318.59
